Time;durP1;ratioP1;P1;durP2;ratioP2;P2;SDS_P1;SDS_P2;PMS_P1;PMS_P2;Temp;Humidity;BMP_temperature;BMP_pressure;BME280_temperature;BME280_humidity;BME280_pressure;Samples;Min_cycle;Max_cycle;Signal;HPM_P1;HPM_P2
2023/03/18 00:00:33;;;;;;;20.10;11.00;;;4.70;1.00;;;;;;5043798;28;20201;-96
2023/03/18 00:02:59;;;;;;;19.20;10.83;;;4.70;1.00;;;;;;5043954;28;20212;-95
2023/03/18 00:05:26;;;;;;;17.87;10.07;;;4.80;1.00;;;;;;5040543;28;20205;-96
2023/03/18 00:07:55;;;;;;;20.03;10.13;;;4.70;1.00;;;;;;5032590;28;20276;-95
2023/03/18 00:10:22;;;;;;;21.00;11.17;;;4.70;1.00;;;;;;5026664;28;20228;-94
2023/03/18 00:12:50;;;;;;;21.60;10.23;;;4.70;1.00;;;;;;5042998;28;20221;-96
2023/03/18 00:15:17;;;;;;;19.37;10.57;;;4.70;1.00;;;;;;5050442;28;20193;-95
2023/03/18 00:17:45;;;;;;;23.53;10.87;;;4.70;1.00;;;;;;5044055;28;20198;-95
2023/03/18 00:20:15;;;;;;;22.17;11.03;;;4.70;2.00;;;;;;5042697;28;20201;-96
2023/03/18 00:22:44;;;;;;;22.50;11.00;;;4.60;1.00;;;;;;5028922;28;20233;-95
2023/03/18 00:25:14;;;;;;;18.87;10.63;;;4.60;1.00;;;;;;5044954;28;20229;-96
2023/03/18 00:27:41;;;;;;;18.63;10.80;;;4.60;2.90;;;;;;5045285;28;20202;-95
2023/03/18 00:30:11;;;;;;;20.87;10.77;;;4.70;1.00;;;;;;5043271;28;20287;-95
2023/03/18 00:32:38;;;;;;;19.47;11.20;;;4.60;12.50;;;;;;5040789;28;20204;-96
2023/03/18 00:35:06;;;;;;;16.73;10.20;;;4.60;3.10;;;;;;5040969;28;20292;-95
2023/03/18 00:37:35;;;;;;;18.90;10.90;;;4.60;13.10;;;;;;5028819;28;20273;-94
2023/03/18 00:40:05;;;;;;;19.83;10.57;;;4.60;5.20;;;;;;5042465;28;20201;-96
2023/03/18 00:42:37;;;;;;;20.63;10.50;;;4.60;8.90;;;;;;5043110;28;20261;-96
2023/03/18 00:45:06;;;;;;;19.03;10.13;;;4.60;8.70;;;;;;5056299;28;20209;-96
2023/03/18 00:47:34;;;;;;;18.03;10.17;;;4.60;9.90;;;;;;5055774;28;20204;-96
2023/03/18 00:50:02;;;;;;;22.50;11.03;;;4.60;8.50;;;;;;5055884;28;20194;-96
2023/03/18 00:52:29;;;;;;;19.67;10.73;;;4.60;4.20;;;;;;5368828;22;20266;-96
2023/03/18 01:15:40;;;;;;;19.10;10.53;;;5.00;21.40;;;;;;5381795;22;20235;-94
2023/03/18 01:18:08;;;;;;;17.87;10.40;;;5.10;7.20;;;;;;4986396;28;20188;-94
2023/03/18 01:20:35;;;;;;;17.90;10.20;;;5.20;1.00;;;;;;4988127;28;20240;-96
2023/03/18 01:23:02;;;;;;;19.67;9.67;;;5.30;10.10;;;;;;4992902;28;20203;-94
2023/03/18 01:25:29;;;;;;;18.20;10.17;;;5.40;8.80;;;;;;4983311;28;20203;-94
2023/03/18 01:27:56;;;;;;;17.87;9.70;;;5.40;6.30;;;;;;4982954;28;20272;-96
2023/03/18 01:30:23;;;;;;;16.47;9.87;;;5.50;8.30;;;;;;4986355;28;20196;-94
2023/03/18 01:32:52;;;;;;;19.57;10.53;;;5.50;3.50;;;;;;4984959;28;20207;-95
2023/03/18 01:35:21;;;;;;;18.10;9.87;;;5.60;4.00;;;;;;4982070;28;20203;-95
2023/03/18 01:37:48;;;;;;;19.67;10.23;;;5.60;11.70;;;;;;4997687;28;20239;-94
2023/03/18 01:40:16;;;;;;;19.40;10.30;;;5.60;3.00;;;;;;4971431;28;20214;-93
2023/03/18 01:42:48;;;;;;;18.57;10.37;;;5.70;7.20;;;;;;4987095;28;20201;-94
2023/03/18 01:45:20;;;;;;;18.67;10.37;;;5.70;4.10;;;;;;4980174;28;20761;-96
2023/03/18 01:47:48;;;;;;;16.47;9.80;;;5.70;7.10;;;;;;4990675;28;20215;-95
2023/03/18 01:50:20;;;;;;;18.23;9.80;;;5.70;3.10;;;;;;4987700;28;20197;-95
2023/03/18 01:52:52;;;;;;;19.00;9.43;;;5.70;1.00;;;;;;4980935;28;20235;-96
2023/03/18 01:55:22;;;;;;;17.40;9.40;;;5.80;3.00;;;;;;4982551;28;20204;-95
2023/03/18 01:57:50;;;;;;;17.40;9.73;;;5.80;1.00;;;;;;4971547;28;20228;-94
2023/03/18 02:00:19;;;;;;;20.90;9.60;;;5.80;1.00;;;;;;4996440;28;20220;-96
2023/03/18 02:02:48;;;;;;;18.53;10.17;;;5.80;1.00;;;;;;4995026;28;20204;-96
2023/03/18 02:05:19;;;;;;;18.27;9.80;;;5.80;1.00;;;;;;4990964;28;20289;-95
2023/03/18 02:07:46;;;;;;;18.77;9.60;;;5.80;1.00;;;;;;4991199;28;20205;-96
2023/03/18 02:10:18;;;;;;;14.83;9.00;;;5.80;1.00;;;;;;4996433;28;20224;-95
2023/03/18 02:12:51;;;;;;;16.73;9.77;;;5.70;1.00;;;;;;4990522;28;20232;-94
2023/03/18 02:15:20;;;;;;;21.87;9.93;;;5.60;5.00;;;;;;4983894;28;20324;-96
2023/03/18 02:17:52;;;;;;;17.53;9.70;;;5.60;1.00;;;;;;4983766;28;20741;-95
2023/03/18 02:20:33;;;;;;;19.67;9.70;;;5.50;3.60;;;;;;4983359;28;20208;-95
2023/03/18 02:23:07;;;;;;;21.70;9.90;;;5.50;5.20;;;;;;4973705;28;20537;-96
2023/03/18 02:25:42;;;;;;;22.03;9.43;;;5.40;1.00;;;;;;4983689;28;20216;-96
2023/03/18 02:28:16;;;;;;;15.80;9.00;;;5.30;1.00;;;;;;4994298;28;20187;-95
2023/03/18 02:30:48;;;;;;;18.53;9.87;;;5.20;1.00;;;;;;4981205;28;20214;-96
2023/03/18 02:33:17;;;;;;;19.77;10.10;;;5.20;1.00;;;;;;4982617;28;20184;-95
2023/03/18 02:35:47;;;;;;;17.13;9.73;;;5.10;1.00;;;;;;4982234;28;20201;-95
2023/03/18 02:38:13;;;;;;;18.37;9.40;;;5.10;5.30;;;;;;4981823;28;20208;-94
2023/03/18 02:40:42;;;;;;;18.30;10.10;;;5.10;1.00;;;;;;4979563;28;20227;-95
2023/03/18 02:43:20;;;;;;;19.17;9.83;;;5.00;2.20;;;;;;4978833;28;20266;-95
2023/03/18 02:45:57;;;;;;;15.07;9.33;;;5.00;8.20;;;;;;4983870;28;20247;-95
2023/03/18 02:48:32;;;;;;;17.30;9.87;;;5.00;7.40;;;;;;4979120;28;20211;-95
2023/03/18 02:50:59;;;;;;;17.80;9.77;;;4.90;6.40;;;;;;4978264;28;20816;-96
2023/03/18 02:53:26;;;;;;;17.87;10.40;;;4.90;5.80;;;;;;4981316;28;20196;-94
2023/03/18 02:55:53;;;;;;;16.30;9.57;;;4.90;7.90;;;;;;4980918;28;20204;-94
2023/03/18 02:58:21;;;;;;;16.27;9.30;;;4.90;4.60;;;;;;4968135;28;20255;-95
2023/03/18 03:00:48;;;;;;;18.03;9.57;;;4.90;1.00;;;;;;4994994;28;20301;-96
2023/03/18 03:03:15;;;;;;;24.93;15.30;;;4.90;1.00;;;;;;4981417;28;20294;-94
2023/03/18 03:05:42;;;;;;;16.90;10.43;;;4.80;1.00;;;;;;4983017;28;20240;-95
2023/03/18 03:08:09;;;;;;;20.07;10.07;;;4.80;1.00;;;;;;4984256;28;20200;-94
2023/03/18 03:10:36;;;;;;;20.00;9.93;;;4.80;1.00;;;;;;4983366;28;20246;-95
2023/03/18 03:13:05;;;;;;;18.83;9.67;;;4.80;1.40;;;;;;4983177;28;20203;-94
2023/03/18 03:15:34;;;;;;;17.07;9.50;;;4.90;1.00;;;;;;4978290;28;20239;-94
2023/03/18 03:18:00;;;;;;;19.43;10.47;;;4.90;8.10;;;;;;4976545;28;20234;-94
2023/03/18 03:20:28;;;;;;;18.77;10.13;;;4.90;7.10;;;;;;4977742;28;20229;-95
2023/03/18 03:22:55;;;;;;;17.27;9.83;;;4.90;4.40;;;;;;4978620;28;20219;-94
2023/03/18 03:25:22;;;;;;;20.23;12.67;;;4.90;2.60;;;;;;4976900;28;20339;-95
2023/03/18 03:27:49;;;;;;;26.40;13.37;;;4.90;3.40;;;;;;4977297;28;20319;-96
2023/03/18 03:30:17;;;;;;;27.00;14.20;;;4.80;3.60;;;;;;4978092;28;20203;-94
2023/03/18 03:32:46;;;;;;;22.67;11.80;;;4.80;1.10;;;;;;4977944;28;20207;-94
2023/03/18 03:35:14;;;;;;;20.97;11.37;;;4.80;7.90;;;;;;4977676;28;20199;-95
2023/03/18 03:37:42;;;;;;;23.27;11.13;;;4.80;11.50;;;;;;4977280;28;20286;-95
2023/03/18 03:40:11;;;;;;;18.17;10.20;;;4.70;10.80;;;;;;4976288;28;20195;-94
2023/03/18 03:42:39;;;;;;;20.40;10.43;;;4.60;12.20;;;;;;4975667;28;20206;-94
2023/03/18 03:45:07;;;;;;;15.53;9.43;;;4.60;11.40;;;;;;4976860;28;20219;-94
2023/03/18 03:47:35;;;;;;;16.93;9.83;;;4.50;14.00;;;;;;4976767;28;20207;-94
2023/03/18 03:50:03;;;;;;;19.13;9.93;;;4.50;13.10;;;;;;4976399;28;20209;-94
2023/03/18 03:52:29;;;;;;;19.20;10.07;;;4.50;14.10;;;;;;4976566;28;20209;-95
2023/03/18 03:54:58;;;;;;;18.53;9.67;;;4.50;14.60;;;;;;4978061;28;20206;-95
2023/03/18 03:57:26;;;;;;;20.87;9.70;;;4.50;12.80;;;;;;4980062;28;20242;-96
2023/03/18 03:59:53;;;;;;;16.67;9.70;;;4.50;11.20;;;;;;4977144;28;20234;-94
2023/03/18 04:02:22;;;;;;;18.97;9.40;;;4.50;9.10;;;;;;4978450;28;20287;-95
2023/03/18 04:04:49;;;;;;;15.83;9.03;;;4.60;7.60;;;;;;4979035;28;20223;-96
2023/03/18 04:07:18;;;;;;;17.97;9.37;;;4.60;16.70;;;;;;4976652;28;20196;-95
2023/03/18 04:09:45;;;;;;;18.07;9.30;;;4.70;7.20;;;;;;4979668;28;20242;-95
2023/03/18 04:12:13;;;;;;;15.07;9.40;;;4.70;12.70;;;;;;4977370;28;20215;-96
2023/03/18 04:14:40;;;;;;;15.33;9.20;;;4.80;15.50;;;;;;4977610;28;20286;-96
2023/03/18 04:17:07;;;;;;;19.50;9.37;;;4.80;25.70;;;;;;4983526;28;20278;-96
2023/03/18 04:19:34;;;;;;;16.80;8.47;;;4.70;4.50;;;;;;4988915;28;20199;-96
2023/03/18 04:22:01;;;;;;;16.10;8.57;;;4.70;3.80;;;;;;4986255;28;20223;-96
2023/03/18 04:24:29;;;;;;;18.50;9.20;;;4.80;3.10;;;;;;4990980;28;20226;-96
2023/03/18 04:26:56;;;;;;;14.03;8.53;;;4.80;11.00;;;;;;4988977;28;20283;-96
2023/03/18 04:29:24;;;;;;;16.00;8.87;;;4.70;5.00;;;;;;4989552;28;20208;-96
2023/03/18 04:31:51;;;;;;;16.87;8.33;;;4.70;2.10;;;;;;4998449;28;20195;-96
2023/03/18 04:34:18;;;;;;;18.43;9.23;;;4.70;5.50;;;;;;4987618;28;20223;-96
2023/03/18 04:36:45;;;;;;;17.97;10.03;;;4.80;2.90;;;;;;4988093;28;20224;-96
2023/03/18 04:39:12;;;;;;;15.23;9.40;;;4.80;1.20;;;;;;4995965;28;20200;-96
2023/03/18 04:41:40;;;;;;;16.63;9.33;;;4.80;1.30;;;;;;4994597;28;20223;-94
2023/03/18 04:44:08;;;;;;;14.60;8.90;;;4.80;4.30;;;;;;4993112;28;20230;-96
2023/03/18 04:46:35;;;;;;;18.27;9.43;;;4.80;1.50;;;;;;4979317;28;20195;-96
2023/03/18 04:49:02;;;;;;;17.87;8.83;;;4.80;1.00;;;;;;4990390;28;20528;-96
2023/03/18 04:51:29;;;;;;;21.77;8.97;;;4.80;1.00;;;;;;4989713;28;20238;-96
2023/03/18 04:53:56;;;;;;;18.03;9.03;;;4.90;1.90;;;;;;4994645;28;20664;-96
2023/03/18 04:56:24;;;;;;;16.97;9.67;;;4.90;4.50;;;;;;4991225;28;20203;-95
2023/03/18 04:58:52;;;;;;;16.73;9.07;;;4.90;11.20;;;;;;4988733;28;20206;-96
2023/03/18 05:01:21;;;;;;;17.57;8.87;;;4.90;1.00;;;;;;4989099;28;20224;-96
2023/03/18 05:03:47;;;;;;;17.60;9.30;;;4.90;10.10;;;;;;4990655;28;20226;-94
2023/03/18 05:06:21;;;;;;;15.40;9.67;;;4.90;4.70;;;;;;4983062;28;20250;-96
2023/03/18 05:08:48;;;;;;;19.53;9.20;;;4.90;16.30;;;;;;4979364;28;20199;-96
2023/03/18 05:11:15;;;;;;;16.40;9.93;;;4.90;7.50;;;;;;4979861;28;20199;-95
2023/03/18 05:13:42;;;;;;;17.63;8.93;;;4.90;7.50;;;;;;4980420;28;20315;-95
2023/03/18 05:16:10;;;;;;;14.70;9.00;;;5.00;8.10;;;;;;4994587;28;20225;-95
2023/03/18 05:18:39;;;;;;;19.03;9.50;;;5.00;11.60;;;;;;4983126;28;20199;-96
2023/03/18 05:21:07;;;;;;;15.90;9.40;;;5.00;8.50;;;;;;4989680;28;20293;-96
2023/03/18 05:23:34;;;;;;;19.43;9.10;;;5.10;5.90;;;;;;4985907;28;20196;-95
2023/03/18 05:26:02;;;;;;;17.43;9.30;;;5.10;8.70;;;;;;4997262;28;20546;-96
2023/03/18 05:28:29;;;;;;;16.33;8.97;;;5.20;12.80;;;;;;4974203;29;20251;-95
2023/03/18 05:30:56;;;;;;;15.60;8.70;;;5.20;1.00;;;;;;4994039;28;20215;-96
2023/03/18 05:38:24;;;;;;;14.73;8.73;;;5.40;13.50;;;;;;5031298;28;20244;-95
2023/03/18 05:40:51;;;;;;;15.47;8.47;;;5.50;3.60;;;;;;5028964;28;20290;-96
2023/03/18 05:43:18;;;;;;;19.30;8.93;;;5.60;1.00;;;;;;5043026;28;20198;-95
2023/03/18 05:48:21;;;;;;;17.63;8.83;;;5.70;30.10;;;;;;5621009;22;20218;-96
2023/03/18 05:50:50;;;;;;;16.50;9.20;;;5.80;2.40;;;;;;5237714;22;20238;-96
2023/03/18 05:53:17;;;;;;;16.23;8.53;;;5.90;1.00;;;;;;5035645;28;20202;-96
2023/03/18 05:55:45;;;;;;;14.93;8.73;;;6.00;1.00;;;;;;5032527;28;20190;-96
2023/03/18 05:58:12;;;;;;;15.63;8.63;;;6.00;1.00;;;;;;5035426;28;20198;-96
2023/03/18 06:00:40;;;;;;;15.30;8.83;;;6.10;1.00;;;;;;5037027;28;20192;-96
2023/03/18 06:03:07;;;;;;;18.63;8.63;;;6.20;1.00;;;;;;5027817;28;20204;-96
2023/03/18 06:05:34;;;;;;;14.70;8.33;;;6.20;1.00;;;;;;5034415;28;20218;-95
2023/03/18 06:08:01;;;;;;;19.57;10.13;;;6.30;1.00;;;;;;5037703;28;20205;-96
2023/03/18 06:10:28;;;;;;;29.83;15.83;;;6.40;1.00;;;;;;5025681;28;20243;-96
2023/03/18 06:12:57;;;;;;;50.03;24.23;;;6.40;1.00;;;;;;5029926;28;20187;-96
2023/03/18 06:17:59;;;;;;;16.20;10.53;;;6.60;6.80;;;;;;5631462;22;20232;-96
2023/03/18 06:20:26;;;;;;;17.47;10.73;;;6.60;1.00;;;;;;5022571;28;20221;-95
2023/03/18 06:22:53;;;;;;;17.83;10.60;;;6.70;1.00;;;;;;5020643;28;20193;-96
2023/03/18 06:25:22;;;;;;;18.23;9.40;;;6.80;1.00;;;;;;5033175;28;20289;-95
2023/03/18 06:27:49;;;;;;;16.93;9.20;;;6.90;1.00;;;;;;5033044;28;20201;-96
2023/03/18 06:30:18;;;;;;;16.03;8.50;;;7.00;1.00;;;;;;5183865;22;20213;-96
2023/03/18 06:32:46;;;;;;;15.70;9.67;;;7.10;1.00;;;;;;5015297;28;20233;-96
2023/03/18 06:35:14;;;;;;;16.93;9.80;;;7.20;1.00;;;;;;5012430;28;20205;-96
2023/03/18 06:37:41;;;;;;;20.77;13.93;;;7.30;1.00;;;;;;4993425;28;20195;-95
2023/03/18 06:40:11;;;;;;;19.07;12.73;;;7.40;1.00;;;;;;4996968;28;20230;-96
2023/03/18 06:42:38;;;;;;;19.50;12.43;;;7.50;1.00;;;;;;5000812;28;20195;-93
2023/03/18 06:45:06;;;;;;;17.03;11.37;;;7.60;1.00;;;;;;4991418;28;20230;-92
2023/03/18 06:47:34;;;;;;;20.53;10.67;;;7.70;1.00;;;;;;4991294;28;20207;-93
2023/03/18 06:50:02;;;;;;;16.93;10.13;;;7.80;1.00;;;;;;4996273;28;20206;-94
2023/03/18 06:52:28;;;;;;;18.27;10.30;;;7.90;1.00;;;;;;4987817;28;20199;-94
2023/03/18 06:54:56;;;;;;;17.47;9.80;;;8.00;9.10;;;;;;4996631;28;20212;-94
2023/03/18 06:57:23;;;;;;;17.00;10.37;;;8.10;1.00;;;;;;4996667;28;20190;-94
2023/03/18 06:59:49;;;;;;;16.33;10.30;;;8.20;1.00;;;;;;4995853;28;20202;-92
2023/03/18 07:02:16;;;;;;;20.93;12.20;;;8.20;1.00;;;;;;4995735;28;20187;-93
2023/03/18 07:04:44;;;;;;;18.20;11.03;;;8.30;1.00;;;;;;4995899;28;20290;-91
2023/03/18 07:07:11;;;;;;;23.50;14.17;;;8.50;1.00;;;;;;4995733;28;20220;-91
2023/03/18 07:09:38;;;;;;;39.37;26.43;;;8.60;1.00;;;;;;4996076;28;20231;-93
2023/03/18 07:12:06;;;;;;;24.07;15.07;;;8.70;1.00;;;;;;4996065;28;20575;-92
2023/03/18 07:14:33;;;;;;;24.23;13.20;;;8.80;1.00;;;;;;4996173;28;20243;-93
2023/03/18 07:16:59;;;;;;;26.80;14.43;;;8.90;1.00;;;;;;4995340;28;20208;-94
2023/03/18 07:19:27;;;;;;;15.73;10.00;;;8.90;1.00;;;;;;4995308;28;20188;-94
2023/03/18 07:21:55;;;;;;;17.53;9.70;;;8.90;1.00;;;;;;4995928;28;20199;-93
2023/03/18 07:24:22;;;;;;;21.10;11.27;;;8.90;1.00;;;;;;4995955;28;20251;-93
2023/03/18 07:26:50;;;;;;;17.93;10.93;;;8.90;1.00;;;;;;4990280;28;20706;-92
2023/03/18 07:29:17;;;;;;;18.23;10.07;;;8.80;1.00;;;;;;4988223;28;20259;-93
2023/03/18 07:31:44;;;;;;;16.60;9.80;;;8.80;1.00;;;;;;4993084;28;20205;-94
2023/03/18 07:34:12;;;;;;;14.17;9.30;;;8.80;1.00;;;;;;4995414;28;20199;-93
2023/03/18 07:36:39;;;;;;;24.63;10.00;;;8.80;1.00;;;;;;4995512;28;20205;-92
2023/03/18 07:39:09;;;;;;;20.87;10.13;;;8.80;1.00;;;;;;4997175;28;20204;-95
2023/03/18 07:41:36;;;;;;;16.03;9.10;;;8.80;1.00;;;;;;5003378;28;20236;-93
2023/03/18 07:44:04;;;;;;;19.37;10.50;;;8.80;1.00;;;;;;5006747;28;20575;-96
2023/03/18 07:46:30;;;;;;;20.80;10.17;;;8.90;1.00;;;;;;5007732;28;20344;-95
2023/03/18 07:48:57;;;;;;;23.07;12.27;;;8.90;1.00;;;;;;5001964;28;20208;-94
2023/03/18 07:51:25;;;;;;;20.77;11.67;;;9.00;1.00;;;;;;4998968;28;20211;-95
2023/03/18 07:53:52;;;;;;;26.10;12.40;;;9.00;1.00;;;;;;4998901;28;20198;-94
2023/03/18 07:56:20;;;;;;;18.80;11.17;;;9.10;1.00;;;;;;5000657;28;20198;-95
2023/03/18 07:58:47;;;;;;;21.93;12.93;;;9.10;1.00;;;;;;5003938;28;20206;-94
2023/03/18 08:01:17;;;;;;;28.83;19.40;;;9.20;1.00;;;;;;5003859;28;20272;-94
2023/03/18 08:03:45;;;;;;;39.33;22.47;;;9.30;1.00;;;;;;4995905;28;20289;-93
2023/03/18 08:06:12;;;;;;;36.40;20.80;;;9.40;1.00;;;;;;4995280;28;20229;-92
2023/03/18 08:08:40;;;;;;;38.50;22.27;;;9.50;1.00;;;;;;4991330;28;20210;-94
2023/03/18 08:11:08;;;;;;;31.67;20.27;;;9.60;1.00;;;;;;4995729;28;20205;-94
2023/03/18 08:13:37;;;;;;;22.73;15.77;;;9.70;1.00;;;;;;4995980;28;20194;-93
2023/03/18 08:16:04;;;;;;;19.67;11.90;;;9.80;1.00;;;;;;4994283;28;20206;-94
2023/03/18 08:18:31;;;;;;;19.57;12.30;;;9.80;1.00;;;;;;4992458;28;20367;-93
2023/03/18 08:20:58;;;;;;;21.33;11.07;;;9.90;1.00;;;;;;4977896;28;20205;-93
2023/03/18 08:23:25;;;;;;;20.00;13.73;;;10.00;1.00;;;;;;4984373;28;20206;-94
2023/03/18 08:25:52;;;;;;;17.67;11.07;;;10.00;1.00;;;;;;4989482;28;20215;-93
2023/03/18 08:28:19;;;;;;;18.53;12.23;;;10.10;1.00;;;;;;4987095;28;20293;-95
2023/03/18 08:30:47;;;;;;;35.97;24.07;;;10.10;1.00;;;;;;4993900;28;20235;-91
2023/03/18 08:33:14;;;;;;;24.00;14.50;;;10.20;1.00;;;;;;4995286;28;20206;-93
2023/03/18 08:35:41;;;;;;;22.33;13.30;;;10.30;1.00;;;;;;4995738;28;20754;-93
2023/03/18 08:38:09;;;;;;;21.37;13.13;;;10.40;1.00;;;;;;4998842;28;20206;-94
2023/03/18 08:40:35;;;;;;;17.03;9.97;;;10.50;1.00;;;;;;4995871;28;20195;-93
2023/03/18 08:43:02;;;;;;;17.30;9.03;;;10.60;1.00;;;;;;4998509;28;20722;-93
2023/03/18 08:45:29;;;;;;;17.57;10.03;;;10.80;1.00;;;;;;4987036;28;20209;-94
2023/03/18 08:47:58;;;;;;;14.73;8.70;;;10.90;1.00;;;;;;4996300;28;20202;-92
2023/03/18 08:50:27;;;;;;;16.20;8.90;;;10.90;1.00;;;;;;4998262;28;20604;-93
2023/03/18 08:52:56;;;;;;;15.43;10.80;;;11.00;1.00;;;;;;4998371;28;20206;-93
2023/03/18 08:55:28;;;;;;;18.23;9.67;;;11.00;1.00;;;;;;4998051;28;20252;-93
2023/03/18 08:57:55;;;;;;;14.07;9.57;;;11.00;1.00;;;;;;4985217;28;20239;-92
2023/03/18 09:00:22;;;;;;;19.57;12.27;;;11.10;1.00;;;;;;4997988;28;20213;-92
2023/03/18 09:02:49;;;;;;;16.33;11.13;;;11.00;1.00;;;;;;4998332;28;20199;-94
2023/03/18 09:05:17;;;;;;;20.80;12.83;;;11.00;1.00;;;;;;4998147;28;20196;-93
2023/03/18 09:07:45;;;;;;;20.80;13.17;;;11.00;1.00;;;;;;4998063;28;20218;-92
2023/03/18 09:10:13;;;;;;;21.23;12.63;;;11.10;1.00;;;;;;4986686;28;20215;-93
2023/03/18 09:12:41;;;;;;;17.77;10.90;;;11.20;1.00;;;;;;4993477;28;20248;-93
2023/03/18 09:15:10;;;;;;;17.47;11.10;;;11.40;1.00;;;;;;4990034;28;20229;-93
2023/03/18 09:17:39;;;;;;;18.73;12.53;;;11.60;1.00;;;;;;4987148;28;20224;-94
2023/03/18 09:20:07;;;;;;;20.67;12.90;;;11.70;1.00;;;;;;4994315;28;20215;-93
2023/03/18 09:22:35;;;;;;;25.13;17.13;;;11.90;1.00;;;;;;4992881;28;20667;-93
2023/03/18 09:25:02;;;;;;;15.77;9.27;;;12.00;1.00;;;;;;4982258;28;20201;-93
2023/03/18 09:27:29;;;;;;;25.57;16.67;;;12.20;1.00;;;;;;4986900;28;20637;-93
2023/03/18 09:29:56;;;;;;;20.57;13.63;;;12.20;1.00;;;;;;4989640;28;20240;-93
2023/03/18 09:32:24;;;;;;;15.87;10.60;;;12.30;1.00;;;;;;4990846;28;20206;-93
2023/03/18 09:34:51;;;;;;;18.90;12.53;;;12.40;1.00;;;;;;4988464;28;20261;-92
2023/03/18 09:37:19;;;;;;;16.37;10.60;;;12.40;1.00;;;;;;5000088;28;20195;-95
2023/03/18 09:39:47;;;;;;;20.60;11.83;;;12.50;1.00;;;;;;5003756;28;20290;-96
2023/03/18 09:42:30;;;;;;;16.60;10.87;;;12.60;1.00;;;;;;5111759;22;20234;-96
2023/03/18 09:45:01;;;;;;;15.93;9.23;;;12.70;1.00;;;;;;5014685;28;20204;-96
2023/03/18 09:50:19;;;;;;;13.30;9.20;;;12.80;1.00;;;;;;5089826;22;20649;-96
2023/03/18 09:52:50;;;;;;;15.33;9.67;;;12.90;1.00;;;;;;5019230;28;20195;-96
2023/03/18 09:55:28;;;;;;;15.80;9.90;;;13.00;1.00;;;;;;5028316;28;20220;-96
2023/03/18 09:58:01;;;;;;;14.80;9.80;;;13.00;1.00;;;;;;5036425;28;20226;-96
2023/03/18 10:00:32;;;;;;;19.03;12.80;;;13.10;1.00;;;;;;5034586;28;20211;-96
2023/03/18 10:03:04;;;;;;;22.63;12.10;;;13.10;1.00;;;;;;5029506;28;20195;-96
2023/03/18 10:05:34;;;;;;;17.17;9.53;;;13.10;1.00;;;;;;5034130;28;20174;-96
2023/03/18 10:08:06;;;;;;;12.97;7.77;;;13.20;1.00;;;;;;5023795;28;20652;-96
2023/03/18 10:31:19;;;;;;;12.83;8.67;;;14.20;1.00;;;;;;5007802;28;20217;-96
2023/03/18 10:33:54;;;;;;;12.43;8.20;;;14.30;1.00;;;;;;5009834;28;20197;-95
2023/03/18 10:36:26;;;;;;;16.20;9.33;;;14.40;1.00;;;;;;5012465;28;20203;-96
2023/03/18 10:38:55;;;;;;;16.17;9.80;;;14.40;1.00;;;;;;5017652;28;20215;-96
2023/03/18 10:41:29;;;;;;;17.27;9.77;;;14.50;1.00;;;;;;5013439;28;20231;-96
2023/03/18 10:43:57;;;;;;;13.97;8.47;;;14.50;1.00;;;;;;5009091;28;20189;-96
2023/03/18 10:46:27;;;;;;;11.80;8.90;;;14.60;1.00;;;;;;5010218;28;20316;-95
2023/03/18 10:48:59;;;;;;;17.50;9.90;;;14.60;1.00;;;;;;5012280;28;20194;-96
2023/03/18 10:51:32;;;;;;;19.13;10.63;;;14.60;1.00;;;;;;5010484;28;20247;-95
2023/03/18 10:54:09;;;;;;;16.10;9.07;;;14.60;1.00;;;;;;5014884;28;20233;-96
2023/03/18 10:56:37;;;;;;;11.20;7.70;;;14.70;1.00;;;;;;5009567;28;20190;-96
2023/03/18 10:59:14;;;;;;;14.93;9.17;;;14.80;1.00;;;;;;5011288;28;20199;-96
2023/03/18 11:01:45;;;;;;;21.40;9.13;;;14.80;1.00;;;;;;5023854;28;20209;-96
2023/03/18 11:04:14;;;;;;;11.63;7.00;;;14.90;1.00;;;;;;5009145;28;20240;-96
2023/03/18 11:06:46;;;;;;;20.37;8.37;;;14.90;1.00;;;;;;5013550;28;20204;-96
2023/03/18 11:09:17;;;;;;;10.67;7.07;;;14.90;1.00;;;;;;5014913;28;20221;-96
2023/03/18 11:11:48;;;;;;;12.70;7.30;;;14.90;1.00;;;;;;5014815;28;20204;-96
2023/03/18 11:14:19;;;;;;;11.50;7.47;;;14.90;1.00;;;;;;5010312;28;20206;-96
2023/03/18 11:16:50;;;;;;;13.33;8.07;;;15.00;1.00;;;;;;5008826;28;20192;-96
2023/03/18 11:19:32;;;;;;;11.25;7.90;;;15.10;1.00;;;;;;4998078;28;20255;-96
2023/03/18 11:22:05;;;;;;;13.48;7.43;;;15.10;1.00;;;;;;5006957;28;20233;-96
2023/03/18 11:24:38;;;;;;;12.27;8.82;;;15.20;1.00;;;;;;5014541;28;20198;-96
2023/03/18 11:27:22;;;;;;;13.10;7.30;;;15.40;1.00;;;;;;5084629;22;20249;-89
2023/03/18 11:29:54;;;;;;;11.15;8.48;;;15.50;1.00;;;;;;5014938;28;20431;-96
2023/03/18 11:32:27;;;;;;;16.63;8.30;;;15.60;1.00;;;;;;5013773;28;20197;-96
2023/03/18 11:35:07;;;;;;;15.07;9.60;;;15.70;1.00;;;;;;5817782;22;21160;-95
2023/03/18 11:37:36;;;;;;;12.20;6.20;;;15.80;1.00;;;;;;5240174;23;20226;-96
2023/03/18 11:40:25;;;;;;;13.60;8.70;;;15.80;1.00;;;;;;5134858;23;20359;-95
2023/03/18 11:42:57;;;;;;;13.10;8.23;;;15.70;1.00;;;;;;5035913;28;20190;-96
2023/03/18 11:45:34;;;;;;;45.63;30.13;;;15.80;1.00;;;;;;5295887;23;20214;-96
2023/03/18 11:48:03;;;;;;;48.55;27.80;;;15.80;1.00;;;;;;5023836;28;20205;-96
2023/03/18 11:50:40;;;;;;;16.15;9.93;;;16.00;1.00;;;;;;5204160;23;20297;-93
2023/03/18 11:53:13;;;;;;;13.20;9.05;;;16.00;1.00;;;;;;5014213;28;20248;-96
2023/03/18 11:55:48;;;;;;;30.17;17.90;;;16.00;1.00;;;;;;5015869;28;20190;-96
2023/03/18 11:59:02;;;;;;;16.55;9.35;;;15.90;1.00;;;;;;5052571;23;20256;-96
2023/03/18 12:01:35;;;;;;;13.48;9.57;;;15.90;1.00;;;;;;5005927;28;20301;-96
2023/03/18 12:04:23;;;;;;;20.90;11.98;;;16.00;1.00;;;;;;4994062;28;20205;-94
2023/03/18 12:07:00;;;;;;;30.63;15.95;;;16.00;1.00;;;;;;4980298;28;20227;-96
2023/03/18 12:14:40;;;;;;;17.65;10.95;;;16.10;1.00;;;;;;5467750;22;20227;-96
2023/03/18 12:17:19;;;;;;;21.45;12.43;;;16.10;1.00;;;;;;5034639;28;20201;-96
2023/03/18 12:20:16;;;;;;;37.10;18.13;;;16.10;1.00;;;;;;5042651;28;20201;-96
2023/03/18 12:23:05;;;;;;;39.58;19.48;;;16.10;1.00;;;;;;4995073;28;20199;-96
2023/03/18 12:25:46;;;;;;;45.03;21.02;;;16.10;1.00;;;;;;5000930;28;20206;-96
2023/03/18 12:28:23;;;;;;;23.27;12.32;;;16.20;1.00;;;;;;5001865;28;20214;-95
2023/03/18 12:31:06;;;;;;;21.95;11.07;;;16.20;1.00;;;;;;5000723;28;20202;-96
2023/03/18 12:33:55;;;;;;;17.15;9.38;;;16.30;1.00;;;;;;4997971;28;20638;-95
2023/03/18 12:36:32;;;;;;;29.23;15.02;;;16.30;1.00;;;;;;5020532;28;20194;-96
2023/03/18 12:39:14;;;;;;;31.95;15.88;;;16.20;1.00;;;;;;5020811;28;20199;-96
2023/03/18 12:41:52;;;;;;;27.77;14.45;;;16.20;1.00;;;;;;5009929;28;20296;-96
2023/03/18 12:44:32;;;;;;;16.08;8.57;;;16.10;1.00;;;;;;5015887;28;20285;-96
2023/03/18 12:47:06;;;;;;;39.65;17.83;;;16.20;1.00;;;;;;5003076;28;20203;-96
2023/03/18 12:49:37;;;;;;;19.67;9.80;;;16.20;1.00;;;;;;5016656;28;20234;-96
2023/03/18 12:52:08;;;;;;;25.98;12.75;;;16.30;1.00;;;;;;5337231;22;20200;-96
2023/03/18 12:54:43;;;;;;;26.30;10.68;;;16.20;1.00;;;;;;5016352;28;20210;-96
2023/03/18 12:57:15;;;;;;;22.42;12.70;;;16.10;1.00;;;;;;4998938;28;20230;-96
2023/03/18 12:59:48;;;;;;;30.80;16.10;;;16.10;1.00;;;;;;4999014;28;20190;-96
2023/03/18 13:02:32;;;;;;;33.35;18.33;;;16.00;1.00;;;;;;5001558;28;20206;-96
2023/03/18 13:05:02;;;;;;;38.70;21.50;;;16.00;1.00;;;;;;5012883;28;20592;-96
2023/03/18 13:07:40;;;;;;;15.10;8.65;;;16.10;1.00;;;;;;5012327;28;20233;-96
2023/03/18 13:10:19;;;;;;;12.57;8.27;;;16.20;1.00;;;;;;5020523;28;20190;-96
2023/03/18 13:12:49;;;;;;;10.93;6.47;;;16.20;1.00;;;;;;5015523;28;20201;-96
2023/03/18 13:15:27;;;;;;;21.70;11.70;;;16.30;1.00;;;;;;5018555;28;20256;-96
2023/03/18 13:17:57;;;;;;;30.52;15.90;;;16.30;1.00;;;;;;5026522;28;20277;-96
2023/03/18 13:20:26;;;;;;;13.40;9.07;;;16.30;1.00;;;;;;5014298;28;20206;-96
2023/03/18 13:23:16;;;;;;;21.23;12.02;;;16.30;1.00;;;;;;5017584;28;20226;-96
2023/03/18 13:25:56;;;;;;;14.40;8.48;;;16.20;1.00;;;;;;5013688;28;20174;-96
2023/03/18 13:28:42;;;;;;;14.63;9.27;;;16.20;1.00;;;;;;5019007;28;20229;-96
2023/03/18 13:31:16;;;;;;;19.88;12.88;;;16.30;1.00;;;;;;5019706;28;20199;-96
2023/03/18 13:34:09;;;;;;;18.50;10.70;;;16.30;1.00;;;;;;5019357;28;20231;-96
2023/03/18 13:36:58;;;;;;;16.75;9.70;;;16.40;1.00;;;;;;5000160;28;20230;-96
2023/03/18 13:39:41;;;;;;;25.50;13.68;;;16.30;1.00;;;;;;5000081;28;20207;-96
2023/03/18 13:42:21;;;;;;;23.77;15.55;;;16.30;1.00;;;;;;5019925;28;20194;-96
2023/03/18 13:44:56;;;;;;;19.20;12.80;;;16.30;1.00;;;;;;5021976;28;20199;-96
2023/03/18 13:47:24;;;;;;;14.68;8.13;;;16.20;1.00;;;;;;5029481;28;20217;-96
2023/03/18 13:50:02;;;;;;;16.25;11.23;;;16.20;1.00;;;;;;5016938;28;20206;-96
2023/03/18 13:52:35;;;;;;;14.73;9.00;;;16.20;1.00;;;;;;5018071;28;20189;-96
2023/03/18 13:57:56;;;;;;;16.05;11.35;;;16.10;1.00;;;;;;5044463;22;20209;-96
2023/03/18 14:00:29;;;;;;;16.95;9.32;;;16.10;1.00;;;;;;5074148;22;20244;-96
2023/03/18 14:03:16;;;;;;;13.68;8.45;;;16.10;1.00;;;;;;5037898;28;20226;-96
2023/03/18 14:05:44;;;;;;;22.02;13.52;;;16.00;1.00;;;;;;5031995;28;20213;-96